Weather at Grant Regional Health Center Heliport

Public forecast

Using degrees Fahrenheit for public forecast. Weather courtesy of forecast.io.

Closest aviation weather report (METAR) to Grant Regional Health Center Heliport

Closest report is Platteville Municipal Airport, 14.9 nm (27.5 km) SE. Retrieved 2021/06/13 16:15 UTC (4 minutes ago):

KPVB 131615Z AUTO 01008KT 10SM CLR 28/10 A3007 RMK AO1 T02800098

Closest aviation forecast (TAF) to Grant Regional Health Center Heliport

Closest forecast is Dubuque Regional Airport, 26.5 nm (49.1 km) S. Retrieved 2021/06/13 12:22 UTC (4 hours ago):

TAF KDBQ 131120Z 1312/1412 35010KT P6SM SKC FM140100 23005KT P6SM SKC FM140800 34013KT P6SM SCT080